MA52 weather

Sids Airport
Maynard, Massachusetts, United States

Public forecast

Using degrees Fahrenheit for public forecast. Weather courtesy of forecast.io.

Closest aviation weather report (METAR) to Sids Airport

Closest report is Laurence G Hanscom Field, 8.3 nm (15.3 km) ENE. Retrieved 2020/01/27 01:51 UTC (43 minutes ago):

KBED 270151Z 23007KT 10SM SCT040 03/M04 A2967 RMK AO2 SLP062 T00331039

Closest aviation forecast (TAF) to Sids Airport

Closest forecast is Laurence G Hanscom Field, 8.3 nm (15.3 km) ENE. Retrieved 2020-01-27 00:24 UTC (2 hours ago):

TAF KBED 262321Z 2700/2724 26004KT P6SM SCT050 FM271500 26010G19KT P6SM BKN045 FM272200 27009KT P6SM BKN040